Time;durP1;ratioP1;P1;durP2;ratioP2;P2;SDS_P1;SDS_P2;PMS_P1;PMS_P2;Temp;Humidity;BMP_temperature;BMP_pressure;BME280_temperature;BME280_humidity;BME280_pressure;Samples;Min_cycle;Max_cycle;Signal;HPM_P1;HPM_P2
2022/01/01 00:01:02;;;;;;;17.90;6.57;;;;;11.90;97057.00;;;;8271289;28;20235;-76
2022/01/01 00:05:07;;;;;;;15.43;7.10;;;;;11.90;97063.00;;;;8265383;28;20228;-76
2022/01/01 00:09:11;;;;;;;17.80;7.20;;;;;11.80;97066.00;;;;8256053;28;20918;-76
2022/01/01 00:13:15;;;;;;;22.55;6.97;;;;;11.70;97068.00;;;;8270722;28;20318;-76
2022/01/01 00:17:18;;;;;;;15.23;7.38;;;;;11.60;97072.00;;;;8271352;28;20676;-76
2022/01/01 00:21:21;;;;;;;21.50;8.02;;;;;11.60;97082.00;;;;8268800;28;20254;-76
2022/01/01 00:25:25;;;;;;;23.90;8.45;;;;;11.60;97082.00;;;;8280038;28;20414;-76
2022/01/01 00:29:29;;;;;;;24.50;8.48;;;;;11.60;97090.00;;;;8271142;28;20314;-76
2022/01/01 00:33:32;;;;;;;20.77;8.32;;;;;11.60;97081.00;;;;8281319;28;20653;-76
2022/01/01 00:37:35;;;;;;;30.33;9.40;;;;;11.60;97095.00;;;;8278341;28;20344;-76
2022/01/01 00:41:40;;;;;;;31.70;9.50;;;;;11.60;97103.00;;;;8276171;28;20309;-76
2022/01/01 00:45:43;;;;;;;26.15;8.75;;;;;11.60;97112.00;;;;8269544;28;20283;-75
2022/01/01 00:49:46;;;;;;;26.63;8.88;;;;;11.70;97116.00;;;;8266915;28;20726;-76
2022/01/01 00:53:50;;;;;;;27.48;8.77;;;;;11.70;97119.00;;;;8265423;28;20265;-76
2022/01/01 00:57:54;;;;;;;26.77;9.07;;;;;11.70;97132.00;;;;8273562;28;20709;-76
2022/01/01 01:02:02;;;;;;;35.92;9.35;;;;;11.80;97133.00;;;;8270439;28;20245;-76
2022/01/01 01:06:06;;;;;;;26.83;7.97;;;;;11.80;97126.00;;;;8280560;28;20222;-76
2022/01/01 01:10:12;;;;;;;21.08;8.35;;;;;11.90;97128.00;;;;8277565;28;20256;-75
2022/01/01 01:14:21;;;;;;;21.50;7.07;;;;;11.90;97133.00;;;;8271843;28;20217;-76
2022/01/01 01:18:25;;;;;;;16.88;7.38;;;;;11.90;97140.00;;;;8279428;28;20626;-76
2022/01/01 01:22:29;;;;;;;21.73;7.95;;;;;12.00;97141.00;;;;8260303;28;20254;-75
2022/01/01 01:26:32;;;;;;;21.17;7.07;;;;;12.00;97154.00;;;;8269412;28;20327;-76
2022/01/01 01:30:39;;;;;;;18.40;6.43;;;;;12.00;97157.00;;;;8276584;28;20257;-76
2022/01/01 01:34:42;;;;;;;17.63;6.63;;;;;12.10;97163.00;;;;8282831;28;20221;-77
2022/01/01 01:38:45;;;;;;;15.55;6.60;;;;;12.20;97168.00;;;;8278443;28;20253;-75
2022/01/01 01:42:49;;;;;;;15.68;6.53;;;;;12.20;97161.00;;;;8265204;28;20317;-75
2022/01/01 01:46:53;;;;;;;16.95;5.80;;;;;12.20;97158.00;;;;8273661;28;20240;-75
2022/01/01 01:50:57;;;;;;;16.98;6.30;;;;;12.20;97162.00;;;;8297940;28;20250;-76
2022/01/01 01:55:01;;;;;;;19.35;6.18;;;;;12.20;97164.00;;;;8306581;28;20852;-76
2022/01/01 01:59:05;;;;;;;10.90;5.70;;;;;12.30;97164.00;;;;8272496;28;20264;-78
2022/01/01 02:03:10;;;;;;;14.85;5.70;;;;;12.30;97163.00;;;;8276101;28;20627;-77
2022/01/01 02:07:14;;;;;;;12.60;6.20;;;;;12.30;97164.00;;;;8272196;28;20325;-76
2022/01/01 02:11:19;;;;;;;13.98;5.22;;;;;12.30;97158.00;;;;8262561;28;20266;-77
2022/01/01 02:15:40;;;;;;;15.10;5.78;;;;;12.30;97152.00;;;;8272983;28;20329;-76
2022/01/01 02:19:50;;;;;;;10.40;5.32;;;;;12.30;97150.00;;;;8266937;28;20260;-76
2022/01/01 02:23:57;;;;;;;14.07;5.88;;;;;12.30;97162.00;;;;8264874;28;20832;-75
2022/01/01 02:28:00;;;;;;;13.15;5.30;;;;;12.30;97165.00;;;;8271260;28;20320;-76
2022/01/01 02:32:04;;;;;;;11.68;5.55;;;;;12.30;97169.00;;;;8277165;28;20255;-77
2022/01/01 02:36:07;;;;;;;13.70;5.40;;;;;12.30;97185.00;;;;8274928;28;20264;-76
2022/01/01 02:40:14;;;;;;;11.35;5.15;;;;;12.30;97163.00;;;;8257532;28;20253;-76
2022/01/01 02:44:20;;;;;;;11.65;5.65;;;;;12.30;97177.00;;;;8268004;28;20664;-76
2022/01/01 02:48:23;;;;;;;10.48;5.30;;;;;12.30;97189.00;;;;8276589;28;20568;-76
2022/01/01 02:52:27;;;;;;;12.15;5.72;;;;;12.30;97168.00;;;;8273909;28;20363;-77
2022/01/01 02:56:31;;;;;;;11.32;5.60;;;;;12.30;97169.00;;;;8271492;28;22422;-76
2022/01/01 03:00:35;;;;;;;11.85;5.53;;;;;12.30;97182.00;;;;8299751;22;20288;-77
2022/01/01 03:04:38;;;;;;;13.68;4.70;;;;;12.30;97180.00;;;;8333547;23;20307;-77
2022/01/01 03:08:41;;;;;;;9.77;4.95;;;;;12.30;97189.00;;;;8350805;28;20324;-77
2022/01/01 03:12:46;;;;;;;11.55;5.38;;;;;12.30;97177.00;;;;8338083;28;20266;-76
2022/01/01 03:16:49;;;;;;;10.50;5.25;;;;;12.20;97184.00;;;;8329072;28;20263;-76
2022/01/01 03:20:52;;;;;;;7.82;4.43;;;;;12.20;97178.00;;;;8338341;28;20681;-75
2022/01/01 03:24:55;;;;;;;7.38;4.32;;;;;12.10;97175.00;;;;8339997;28;20314;-77
2022/01/01 03:28:59;;;;;;;11.90;4.50;;;;;12.10;97174.00;;;;8333519;28;20319;-76
2022/01/01 03:33:03;;;;;;;9.10;4.78;;;;;12.00;97177.00;;;;8340032;28;20326;-76
2022/01/01 03:37:06;;;;;;;8.93;4.82;;;;;12.00;97182.00;;;;8341901;28;20230;-76
2022/01/01 03:41:09;;;;;;;13.55;4.85;;;;;12.00;97188.00;;;;8336778;28;20967;-76
2022/01/01 03:45:14;;;;;;;11.68;5.20;;;;;11.90;97187.00;;;;8344487;28;20265;-76
2022/01/01 03:49:17;;;;;;;6.82;4.72;;;;;11.90;97199.00;;;;8339162;28;20232;-77
2022/01/01 03:53:21;;;;;;;12.13;5.05;;;;;11.90;97221.00;;;;8340602;28;20700;-77
2022/01/01 03:57:24;;;;;;;9.35;4.72;;;;;11.90;97215.00;;;;8339184;28;20741;-77
2022/01/01 04:01:29;;;;;;;6.60;4.35;;;;;11.90;97220.00;;;;8353358;28;20972;-76
2022/01/01 04:05:33;;;;;;;6.07;4.22;;;;;11.90;97220.00;;;;8349289;28;20235;-76
2022/01/01 04:09:36;;;;;;;10.80;4.70;;;;;11.90;97228.00;;;;8342364;28;20242;-76
2022/01/01 04:13:39;;;;;;;8.35;4.45;;;;;11.90;97235.00;;;;8346711;28;20259;-76
2022/01/01 04:17:44;;;;;;;9.13;5.13;;;;;11.90;97243.00;;;;8353860;28;20684;-76
2022/01/01 04:21:47;;;;;;;9.85;4.65;;;;;11.90;97240.00;;;;8353594;28;20245;-77
2022/01/01 04:25:51;;;;;;;18.23;5.45;;;;;11.90;97232.00;;;;8354121;28;20323;-75
2022/01/01 04:29:54;;;;;;;8.57;4.38;;;;;12.00;97240.00;;;;8345749;28;20356;-75
2022/01/01 04:33:59;;;;;;;10.02;4.43;;;;;11.90;97236.00;;;;8350405;28;20708;-76
2022/01/01 04:38:02;;;;;;;9.73;4.82;;;;;11.90;97240.00;;;;8353109;28;20255;-76
2022/01/01 04:42:06;;;;;;;8.77;4.95;;;;;11.90;97236.00;;;;8354287;28;20323;-75
2022/01/01 04:46:10;;;;;;;9.25;4.80;;;;;11.90;97245.00;;;;8339965;28;20686;-76
2022/01/01 04:50:14;;;;;;;12.05;4.53;;;;;11.80;97246.00;;;;8346755;28;20227;-76
2022/01/01 04:54:17;;;;;;;11.57;5.10;;;;;11.80;97246.00;;;;8352685;28;20347;-76
2022/01/01 04:58:21;;;;;;;12.50;5.80;;;;;11.70;97245.00;;;;8343636;28;20252;-77
2022/01/01 05:02:24;;;;;;;19.23;7.47;;;;;11.60;97242.00;;;;8345333;28;20262;-76
2022/01/01 05:06:30;;;;;;;17.77;7.32;;;;;11.60;97244.00;;;;8340995;28;20235;-76
2022/01/01 05:10:33;;;;;;;19.33;6.95;;;;;11.50;97240.00;;;;8351100;28;20266;-76
2022/01/01 05:14:36;;;;;;;24.15;8.35;;;;;11.50;97246.00;;;;8350768;28;20930;-76
2022/01/01 05:18:39;;;;;;;22.95;7.55;;;;;11.50;97246.00;;;;8350843;28;20661;-77
2022/01/01 05:22:44;;;;;;;21.15;7.43;;;;;11.50;97243.00;;;;8349145;28;20255;-76
2022/01/01 05:26:48;;;;;;;18.95;7.75;;;;;11.50;97239.00;;;;8350149;28;20901;-77
2022/01/01 05:30:51;;;;;;;29.23;9.48;;;;;11.50;97243.00;;;;8351296;28;20226;-76
2022/01/01 05:34:54;;;;;;;20.25;7.90;;;;;11.40;97234.00;;;;8349168;28;20664;-76
2022/01/01 05:38:59;;;;;;;24.70;8.32;;;;;11.40;97235.00;;;;8350794;28;20239;-77
2022/01/01 05:43:02;;;;;;;21.48;8.18;;;;;11.40;97219.00;;;;8346814;28;20320;-76
2022/01/01 05:47:06;;;;;;;19.05;8.70;;;;;11.30;97228.00;;;;8350467;28;20334;-76
2022/01/01 05:51:09;;;;;;;22.88;9.18;;;;;11.30;97233.00;;;;8349834;28;20262;-76
2022/01/01 05:55:14;;;;;;;23.67;8.90;;;;;11.30;97231.00;;;;8351737;28;20322;-77
2022/01/01 05:59:17;;;;;;;23.63;9.20;;;;;11.30;97235.00;;;;8349139;28;20226;-76
2022/01/01 06:03:20;;;;;;;24.33;8.63;;;;;11.30;97253.00;;;;8343175;28;20235;-76
2022/01/01 06:07:23;;;;;;;29.05;9.35;;;;;11.30;97258.00;;;;8350132;28;20325;-75
2022/01/01 06:11:28;;;;;;;24.48;9.13;;;;;11.30;97269.00;;;;8333427;28;20244;-76
2022/01/01 06:15:31;;;;;;;24.77;9.60;;;;;11.30;97267.00;;;;8345499;28;20614;-76
2022/01/01 06:19:35;;;;;;;25.60;8.93;;;;;11.30;97271.00;;;;8341383;28;20511;-76
2022/01/01 06:23:40;;;;;;;26.02;9.63;;;;;11.30;97263.00;;;;8339247;28;20327;-76
2022/01/01 06:27:44;;;;;;;24.83;9.35;;;;;11.40;97261.00;;;;8347477;28;20236;-76
2022/01/01 06:31:47;;;;;;;23.80;9.10;;;;;11.40;97255.00;;;;8342547;28;20319;-76
2022/01/01 06:35:51;;;;;;;23.95;8.98;;;;;11.40;97252.00;;;;8340173;28;20672;-76
2022/01/01 06:39:54;;;;;;;20.20;8.60;;;;;11.30;97240.00;;;;8336744;28;20256;-76
2022/01/01 06:43:58;;;;;;;19.25;7.82;;;;;11.30;97247.00;;;;8340611;28;20217;-76
2022/01/01 06:48:02;;;;;;;20.83;7.82;;;;;11.20;97248.00;;;;8335778;28;20253;-76
2022/01/01 06:52:05;;;;;;;22.42;7.38;;;;;11.10;97257.00;;;;8340374;28;20217;-76
2022/01/01 06:56:09;;;;;;;24.15;8.05;;;;;11.10;97245.00;;;;8328480;28;20278;-76
2022/01/01 07:00:15;;;;;;;22.15;8.10;;;;;11.00;97239.00;;;;8341460;28;20324;-76
2022/01/01 07:04:18;;;;;;;20.92;8.43;;;;;10.90;97242.00;;;;8336316;28;20386;-76
2022/01/01 07:08:22;;;;;;;23.83;8.10;;;;;10.80;97254.00;;;;8339182;28;20326;-76
2022/01/01 07:12:25;;;;;;;19.00;7.82;;;;;10.80;97252.00;;;;8335259;28;20271;-75
2022/01/01 07:16:30;;;;;;;24.77;8.07;;;;;10.70;97266.00;;;;8339868;28;20237;-75
2022/01/01 07:20:33;;;;;;;23.95;7.82;;;;;10.70;97270.00;;;;8325030;28;20230;-75
2022/01/01 07:24:36;;;;;;;20.80;7.93;;;;;10.80;97271.00;;;;8330373;28;20304;-74
2022/01/01 07:28:39;;;;;;;22.02;7.65;;;;;10.90;97278.00;;;;8341320;28;20653;-75
2022/01/01 07:32:46;;;;;;;21.95;8.27;;;;;11.00;97283.00;;;;8334736;28;20252;-74
2022/01/01 07:36:49;;;;;;;19.77;7.95;;;;;11.10;97284.00;;;;8351614;28;21015;-75
2022/01/01 07:40:55;;;;;;;17.60;7.10;;;;;11.20;97288.00;;;;8339586;28;20326;-75
2022/01/01 07:44:59;;;;;;;18.38;7.53;;;;;11.30;97301.00;;;;8343563;28;20243;-75
2022/01/01 07:49:04;;;;;;;24.50;6.72;;;;;11.40;97301.00;;;;8351847;28;20223;-74
2022/01/01 07:53:08;;;;;;;19.13;6.57;;;;;11.40;97310.00;;;;8345602;28;20313;-75
2022/01/01 07:57:11;;;;;;;19.85;6.60;;;;;11.50;97308.00;;;;8340313;28;20315;-75
2022/01/01 08:01:14;;;;;;;16.80;6.28;;;;;11.60;97313.00;;;;8348174;28;20313;-75
2022/01/01 08:05:19;;;;;;;15.50;5.80;;;;;11.70;97321.00;;;;8349501;28;20254;-75
2022/01/01 08:09:22;;;;;;;13.90;5.85;;;;;11.80;97315.00;;;;8341200;28;20323;-76
2022/01/01 08:13:25;;;;;;;14.85;6.40;;;;;11.90;97322.00;;;;8340062;28;20312;-76
2022/01/01 08:17:28;;;;;;;10.88;5.65;;;;;12.00;97316.00;;;;8347796;28;20251;-76
2022/01/01 08:21:33;;;;;;;16.38;5.55;;;;;12.10;97315.00;;;;8341029;28;20691;-75
2022/01/01 08:25:37;;;;;;;16.27;5.35;;;;;12.20;97311.00;;;;8347144;28;20313;-76
2022/01/01 08:29:40;;;;;;;12.77;5.20;;;;;12.30;97322.00;;;;8350397;28;20728;-76
2022/01/01 08:33:43;;;;;;;10.23;5.15;;;;;12.40;97320.00;;;;8347491;28;20319;-76
2022/01/01 08:37:47;;;;;;;9.23;4.88;;;;;12.50;97316.00;;;;8345001;28;20847;-76
2022/01/01 08:41:51;;;;;;;8.93;4.28;;;;;12.60;97313.00;;;;8349563;28;20258;-76
2022/01/01 08:45:54;;;;;;;6.75;4.25;;;;;12.60;97317.00;;;;8347371;28;20281;-76
2022/01/01 08:49:57;;;;;;;6.75;4.03;;;;;12.70;97301.00;;;;8346438;28;20279;-76
2022/01/01 08:54:03;;;;;;;9.75;4.22;;;;;12.70;97310.00;;;;8347917;28;20247;-76
2022/01/01 08:58:06;;;;;;;7.78;4.13;;;;;12.70;97308.00;;;;8343804;28;20232;-76
2022/01/01 09:02:27;;;;;;;7.68;4.47;;;;;12.70;97308.00;;;;8332725;28;20231;-76
2022/01/01 09:06:31;;;;;;;9.88;4.20;;;;;12.80;97302.00;;;;8344906;28;20232;-76
2022/01/01 09:10:35;;;;;;;7.32;4.10;;;;;13.00;97306.00;;;;8339293;28;20257;-76
2022/01/01 09:14:39;;;;;;;7.05;3.97;;;;;13.10;97320.00;;;;8342410;28;20324;-76
2022/01/01 09:18:44;;;;;;;8.50;4.30;;;;;13.10;97311.00;;;;8342238;28;20240;-75
2022/01/01 09:22:48;;;;;;;5.90;3.95;;;;;13.10;97325.00;;;;8339580;28;20228;-76
2022/01/01 09:26:52;;;;;;;4.68;3.47;;;;;13.20;97330.00;;;;8340429;28;20315;-76
2022/01/01 09:30:58;;;;;;;5.75;3.85;;;;;13.40;97332.00;;;;8343540;28;20264;-76
2022/01/01 09:35:02;;;;;;;4.25;3.15;;;;;13.60;97332.00;;;;8342713;28;20252;-75
2022/01/01 09:39:06;;;;;;;4.78;3.53;;;;;13.80;97344.00;;;;8337841;28;20255;-76
2022/01/01 09:43:12;;;;;;;7.47;4.18;;;;;14.00;97343.00;;;;8339460;28;20257;-76
2022/01/01 09:47:15;;;;;;;5.25;3.42;;;;;14.20;97344.00;;;;8339132;28;20323;-76
2022/01/01 09:51:20;;;;;;;5.22;3.58;;;;;14.30;97346.00;;;;8338391;28;20238;-76
2022/01/01 09:55:24;;;;;;;4.82;3.13;;;;;14.30;97340.00;;;;8340325;28;20260;-76
2022/01/01 09:59:29;;;;;;;4.63;2.83;;;;;14.50;97340.00;;;;8346429;28;20307;-76
2022/01/01 10:03:35;;;;;;;3.97;3.00;;;;;14.50;97352.00;;;;8346952;28;20443;-76
2022/01/01 10:07:39;;;;;;;4.95;2.75;;;;;14.50;97353.00;;;;8338132;28;20296;-76
2022/01/01 10:11:42;;;;;;;5.03;2.88;;;;;14.60;97350.00;;;;8339251;28;20240;-76
2022/01/01 10:15:48;;;;;;;5.32;3.03;;;;;14.60;97343.00;;;;8338813;28;20251;-76
2022/01/01 10:19:54;;;;;;;4.10;3.15;;;;;14.70;97333.00;;;;8343680;28;20281;-76
2022/01/01 10:23:58;;;;;;;3.47;2.55;;;;;14.80;97334.00;;;;8344163;28;20830;-76
2022/01/01 10:28:03;;;;;;;5.18;2.85;;;;;14.80;97342.00;;;;8334676;28;20240;-75
2022/01/01 10:32:10;;;;;;;6.25;2.67;;;;;14.80;97341.00;;;;8336681;28;20236;-75
2022/01/01 10:36:15;;;;;;;2.60;2.38;;;;;14.90;97324.00;;;;8336737;28;20247;-75
2022/01/01 10:40:25;;;;;;;4.35;1.98;;;;;14.90;97325.00;;;;8345414;28;20252;-75
2022/01/01 10:44:31;;;;;;;2.17;2.00;;;;;14.90;97331.00;;;;8335594;28;20249;-76
2022/01/01 10:48:55;;;;;;;5.65;1.88;;;;;15.00;97330.00;;;;8337710;28;20316;-75
2022/01/01 10:53:10;;;;;;;3.53;1.67;;;;;14.90;97327.00;;;;8339821;28;20255;-75
2022/01/01 10:57:14;;;;;;;2.15;1.92;;;;;15.00;97323.00;;;;8339410;28;20256;-75
2022/01/01 11:01:21;;;;;;;3.13;1.90;;;;;15.10;97320.00;;;;8338613;28;20311;-75
2022/01/01 11:05:30;;;;;;;2.63;1.80;;;;;15.10;97311.00;;;;8342541;28;20237;-75
2022/01/01 11:09:34;;;;;;;2.25;1.83;;;;;15.10;97306.00;;;;8338412;28;20323;-75
2022/01/01 11:13:38;;;;;;;5.07;1.80;;;;;15.10;97316.00;;;;8336820;28;20598;-75
2022/01/01 11:17:42;;;;;;;1.98;1.80;;;;;15.00;97311.00;;;;8332184;28;20236;-75
2022/01/01 11:21:47;;;;;;;2.42;1.60;;;;;14.90;97313.00;;;;8338130;28;20711;-75
2022/01/01 11:25:51;;;;;;;2.08;1.60;;;;;14.80;97310.00;;;;8333719;28;20311;-75
2022/01/01 11:29:55;;;;;;;3.08;1.70;;;;;14.70;97307.00;;;;8329761;28;20576;-74
2022/01/01 11:34:00;;;;;;;3.60;1.50;;;;;14.60;97307.00;;;;8327900;28;20252;-75
2022/01/01 11:38:07;;;;;;;6.10;1.70;;;;;14.60;97311.00;;;;8333196;28;20225;-74
2022/01/01 11:42:12;;;;;;;2.25;1.75;;;;;14.60;97311.00;;;;8340293;28;20256;-75
2022/01/01 11:46:17;;;;;;;3.28;1.70;;;;;14.60;97312.00;;;;8342428;28;20251;-75
2022/01/01 11:50:43;;;;;;;1.98;1.30;;;;;14.60;97314.00;;;;8327712;28;20697;-76
2022/01/01 11:55:00;;;;;;;2.45;1.75;;;;;14.50;97299.00;;;;8334517;28;20332;-75
2022/01/01 11:59:18;;;;;;;4.65;1.60;;;;;14.50;97297.00;;;;8334979;28;20271;-75
2022/01/01 12:03:26;;;;;;;1.60;1.50;;;;;14.60;97300.00;;;;8337935;28;20356;-75
2022/01/01 12:07:30;;;;;;;3.58;1.67;;;;;14.50;97306.00;;;;8315380;28;20674;-78
2022/01/01 12:11:36;;;;;;;4.00;1.70;;;;;14.40;97311.00;;;;8329671;28;20236;-77
2022/01/01 12:15:43;;;;;;;2.08;1.80;;;;;14.30;97310.00;;;;8333196;28;20232;-79
2022/01/01 12:19:46;;;;;;;2.33;1.60;;;;;14.20;97311.00;;;;8334378;28;20842;-78
2022/01/01 12:23:54;;;;;;;1.83;1.73;;;;;14.10;97316.00;;;;8343406;28;20240;-79
2022/01/01 12:28:03;;;;;;;1.92;1.58;;;;;14.10;97304.00;;;;8342264;28;20244;-79
2022/01/01 12:32:08;;;;;;;1.52;1.42;;;;;14.10;97294.00;;;;8337687;28;20672;-78
2022/01/01 12:36:13;;;;;;;4.57;1.70;;;;;14.10;97289.00;;;;8327253;28;20249;-78
2022/01/01 12:40:18;;;;;;;2.25;1.60;;;;;14.20;97292.00;;;;8336017;28;20228;-77
2022/01/01 12:44:31;;;;;;;4.28;1.85;;;;;14.30;97280.00;;;;8329222;28;20315;-75
2022/01/01 12:48:36;;;;;;;1.75;1.40;;;;;14.30;97280.00;;;;8332803;28;20220;-78
2022/01/01 12:52:39;;;;;;;2.25;1.80;;;;;14.30;97284.00;;;;8333009;28;20316;-78
2022/01/01 12:56:48;;;;;;;3.65;1.65;;;;;14.40;97277.00;;;;8320963;28;20233;-78
2022/01/01 13:00:53;;;;;;;2.28;1.58;;;;;14.50;97276.00;;;;8337702;28;20228;-77
2022/01/01 13:05:02;;;;;;;4.20;1.80;;;;;14.60;97275.00;;;;8334772;28;20232;-76
2022/01/01 13:09:07;;;;;;;4.60;1.80;;;;;14.70;97281.00;;;;8336853;28;20315;-80
2022/01/01 13:13:11;;;;;;;4.88;1.83;;;;;14.70;97273.00;;;;8337726;28;20221;-81
2022/01/01 13:17:16;;;;;;;3.50;1.63;;;;;14.70;97273.00;;;;8337817;28;20873;-79
2022/01/01 13:21:20;;;;;;;4.00;1.70;;;;;14.60;97275.00;;;;8334700;28;20225;-80
2022/01/01 13:25:23;;;;;;;4.55;1.52;;;;;14.60;97271.00;;;;8336060;28;20236;-79
2022/01/01 13:29:27;;;;;;;3.05;1.63;;;;;14.70;97284.00;;;;8335178;28;20332;-78
2022/01/01 13:33:40;;;;;;;1.83;1.67;;;;;14.70;97278.00;;;;8335658;28;20662;-79
2022/01/01 13:37:43;;;;;;;4.30;1.65;;;;;14.50;97280.00;;;;8339308;28;20846;-78
2022/01/01 13:41:48;;;;;;;1.98;1.60;;;;;14.30;97272.00;;;;8341612;28;20318;-78
2022/01/01 13:46:05;;;;;;;2.95;1.65;;;;;14.30;97269.00;;;;8346412;28;20240;-78
2022/01/01 13:50:20;;;;;;;4.70;2.00;;;;;14.30;97258.00;;;;8346282;28;20782;-77
2022/01/01 13:54:25;;;;;;;4.55;1.67;;;;;14.10;97270.00;;;;8340436;28;20228;-78
2022/01/01 13:58:28;;;;;;;3.03;1.83;;;;;13.90;97266.00;;;;8339689;28;20386;-78
2022/01/01 14:02:33;;;;;;;2.22;1.80;;;;;13.90;97267.00;;;;8340893;28;20260;-77
2022/01/01 14:06:39;;;;;;;4.03;1.77;;;;;13.80;97271.00;;;;8338530;28;20684;-76
2022/01/01 14:10:42;;;;;;;4.80;1.98;;;;;13.90;97267.00;;;;8342566;28;20223;-76
2022/01/01 14:14:46;;;;;;;1.90;1.80;;;;;13.90;97267.00;;;;8319671;28;20324;-76
2022/01/01 14:18:50;;;;;;;2.53;1.70;;;;;13.90;97257.00;;;;8339416;28;20279;-77
2022/01/01 14:22:56;;;;;;;3.15;1.85;;;;;13.70;97263.00;;;;8341228;28;20232;-78
2022/01/01 14:27:07;;;;;;;3.50;1.95;;;;;13.60;97264.00;;;;8330160;28;21104;-76
2022/01/01 14:31:10;;;;;;;4.10;2.80;;;;;13.50;97268.00;;;;8339384;28;20930;-78
2022/01/01 14:35:14;;;;;;;3.70;1.92;;;;;13.50;97260.00;;;;8333809;28;20252;-78
2022/01/01 14:39:20;;;;;;;6.15;1.80;;;;;13.40;97254.00;;;;8339328;28;20232;-74
2022/01/01 14:43:25;;;;;;;2.05;1.70;;;;;13.30;97242.00;;;;8335026;28;20224;-75
2022/01/01 14:47:32;;;;;;;2.53;1.83;;;;;13.20;97238.00;;;;8339822;28;20228;-75
2022/01/01 14:51:44;;;;;;;1.75;1.63;;;;;13.10;97245.00;;;;8336919;28;20315;-74
2022/01/01 14:56:02;;;;;;;6.03;2.17;;;;;12.90;97246.00;;;;8335996;28;20237;-74
2022/01/01 15:00:09;;;;;;;4.65;2.10;;;;;12.70;97236.00;;;;8334560;28;20225;-78
2022/01/01 15:04:13;;;;;;;2.20;2.00;;;;;12.50;97237.00;;;;8335414;28;20229;-78
2022/01/01 15:08:17;;;;;;;2.10;2.00;;;;;12.20;97244.00;;;;8336703;28;20233;-79
2022/01/01 15:12:22;;;;;;;4.85;1.88;;;;;11.80;97236.00;;;;8336402;28;21001;-80
2022/01/01 15:16:29;;;;;;;2.33;2.10;;;;;11.50;97235.00;;;;8332319;28;20288;-79
2022/01/01 15:20:33;;;;;;;4.80;2.50;;;;;11.20;97238.00;;;;8335479;28;20248;-78
2022/01/01 15:24:40;;;;;;;3.63;2.13;;;;;10.90;97235.00;;;;8337814;28;20253;-78
2022/01/01 15:28:48;;;;;;;5.43;2.38;;;;;10.60;97242.00;;;;8340365;28;20683;-79
2022/01/01 15:33:14;;;;;;;5.70;3.22;;;;;10.30;97238.00;;;;8334713;28;20304;-78
2022/01/01 15:37:39;;;;;;;3.88;2.40;;;;;10.00;97245.00;;;;8330209;28;20227;-79
2022/01/01 15:42:06;;;;;;;5.63;2.38;;;;;9.80;97247.00;;;;8338140;28;20247;-76
2022/01/01 15:46:11;;;;;;;4.07;2.42;;;;;9.50;97239.00;;;;8326240;28;20250;-79
2022/01/01 15:50:15;;;;;;;5.05;2.75;;;;;9.30;97221.00;;;;8319781;28;20242;-77
2022/01/01 15:54:18;;;;;;;11.77;4.53;;;;;9.10;97225.00;;;;8333159;28;20781;-77
2022/01/01 15:58:23;;;;;;;8.18;4.03;;;;;9.00;97228.00;;;;8336452;28;20300;-75
2022/01/01 16:02:46;;;;;;;4.80;3.00;;;;;8.90;97231.00;;;;8340234;28;20224;-76
2022/01/01 16:06:52;;;;;;;6.40;3.70;;;;;8.60;97223.00;;;;8338071;28;20274;-76
2022/01/01 16:10:57;;;;;;;6.30;3.40;;;;;8.40;97229.00;;;;8332899;28;20248;-75
2022/01/01 16:15:06;;;;;;;8.17;3.03;;;;;8.20;97221.00;;;;8334164;28;20728;-76
2022/01/01 16:19:11;;;;;;;7.32;3.30;;;;;8.10;97219.00;;;;8331158;28;20714;-76
2022/01/01 16:23:16;;;;;;;7.32;3.33;;;;;8.00;97198.00;;;;8328842;28;20951;-77
2022/01/01 16:27:22;;;;;;;5.53;3.23;;;;;7.90;97209.00;;;;8330562;28;20224;-76
2022/01/01 16:31:26;;;;;;;7.70;4.70;;;;;7.80;97207.00;;;;8341057;28;20709;-74
2022/01/01 16:35:33;;;;;;;11.75;6.15;;;;;7.60;97213.00;;;;8341851;28;20669;-77
2022/01/01 16:39:36;;;;;;;7.10;3.47;;;;;7.50;97215.00;;;;8342167;28;20228;-76
2022/01/01 16:43:51;;;;;;;11.93;7.13;;;;;7.30;97219.00;;;;8342878;28;20228;-77
2022/01/01 16:48:00;;;;;;;51.33;28.37;;;;;7.20;97218.00;;;;8335576;28;20227;-77
2022/01/01 16:52:13;;;;;;;26.13;12.50;;;;;7.20;97220.00;;;;8343851;28;20303;-77
2022/01/01 16:56:17;;;;;;;13.23;5.20;;;;;7.20;97207.00;;;;8346282;28;20255;-78
2022/01/01 17:00:20;;;;;;;13.10;4.63;;;;;7.10;97204.00;;;;8341528;28;20255;-77
2022/01/01 17:04:32;;;;;;;13.23;5.13;;;;;7.00;97199.00;;;;8340341;28;20315;-77
2022/01/01 17:08:38;;;;;;;12.30;6.20;;;;;6.90;97193.00;;;;8340673;28;20308;-77
2022/01/01 17:12:41;;;;;;;9.33;5.10;;;;;6.90;97189.00;;;;8339398;28;20225;-75
2022/01/01 17:16:55;;;;;;;11.73;6.43;;;;;6.90;97189.00;;;;8336048;28;20332;-75
2022/01/01 17:21:01;;;;;;;11.70;5.33;;;;;6.80;97183.00;;;;8341222;28;20217;-78
2022/01/01 17:25:09;;;;;;;12.87;6.87;;;;;6.70;97187.00;;;;8339701;28;20341;-77
2022/01/01 17:29:16;;;;;;;15.53;7.53;;;;;6.80;97190.00;;;;8340350;28;20243;-76
2022/01/01 17:33:26;;;;;;;12.67;6.97;;;;;6.70;97193.00;;;;8340098;28;20304;-76
2022/01/01 17:37:43;;;;;;;18.40;6.47;;;;;6.70;97186.00;;;;8341825;28;20247;-77
2022/01/01 17:41:57;;;;;;;14.60;6.83;;;;;6.70;97183.00;;;;8334165;28;20352;-76
2022/01/01 17:46:00;;;;;;;16.80;6.43;;;;;6.60;97185.00;;;;8336087;28;20232;-78
2022/01/01 17:50:11;;;;;;;9.43;5.30;;;;;6.60;97183.00;;;;8337890;28;20928;-75
2022/01/01 17:54:16;;;;;;;14.17;6.37;;;;;6.60;97185.00;;;;8341974;28;20316;-76
2022/01/01 17:58:23;;;;;;;11.43;6.37;;;;;6.60;97183.00;;;;8333285;28;20328;-79
2022/01/01 18:02:27;;;;;;;12.10;6.13;;;;;6.60;97184.00;;;;8335243;28;20305;-77
2022/01/01 18:06:30;;;;;;;14.50;9.57;;;;;6.70;97183.00;;;;8340458;28;20236;-77
2022/01/01 18:10:41;;;;;;;16.70;7.10;;;;;6.70;97183.00;;;;8340600;28;20256;-75
2022/01/01 18:14:48;;;;;;;21.00;6.93;;;;;6.50;97176.00;;;;8338534;28;20255;-78
2022/01/01 18:18:53;;;;;;;14.10;6.70;;;;;6.40;97178.00;;;;8333217;28;20225;-75
2022/01/01 18:22:58;;;;;;;8.40;5.50;;;;;6.30;97173.00;;;;8336013;28;20242;-76
2022/01/01 18:27:10;;;;;;;13.67;6.40;;;;;6.20;97168.00;;;;8338905;28;20266;-77
2022/01/01 18:31:16;;;;;;;11.10;6.30;;;;;6.10;97166.00;;;;8328916;28;20673;-77
2022/01/01 18:35:20;;;;;;;18.50;7.33;;;;;6.00;97158.00;;;;8340025;28;20266;-78
2022/01/01 18:39:25;;;;;;;21.47;8.20;;;;;5.80;97154.00;;;;8337036;28;20252;-78
2022/01/01 18:43:31;;;;;;;12.23;6.67;;;;;5.80;97146.00;;;;8334138;28;20227;-78
2022/01/01 18:47:35;;;;;;;14.63;7.43;;;;;5.80;97139.00;;;;8343233;28;20665;-77
2022/01/01 18:51:40;;;;;;;27.07;11.77;;;;;5.70;97127.00;;;;8339155;28;20331;-77
2022/01/01 18:55:45;;;;;;;17.00;7.43;;;;;5.70;97136.00;;;;8332523;28;20312;-74
2022/01/01 18:59:51;;;;;;;19.40;8.40;;;;;5.60;97129.00;;;;8335200;28;20318;-77
2022/01/01 19:03:59;;;;;;;20.67;9.90;;;;;5.60;97130.00;;;;8330306;28;20256;-77
2022/01/01 19:08:04;;;;;;;29.73;12.60;;;;;5.60;97131.00;;;;8334848;28;20244;-77
2022/01/01 19:12:21;;;;;;;22.93;10.90;;;;;5.60;97121.00;;;;8336046;28;20319;-77
2022/01/01 19:16:25;;;;;;;22.87;11.00;;;;;5.60;97121.00;;;;8333016;28;20244;-77
2022/01/01 19:20:31;;;;;;;23.60;10.13;;;;;5.60;97126.00;;;;8331694;28;20228;-78
2022/01/01 19:24:38;;;;;;;22.40;11.17;;;;;5.70;97125.00;;;;8333490;28;20567;-78
2022/01/01 19:28:44;;;;;;;30.37;12.90;;;;;5.80;97124.00;;;;8330333;28;20566;-78
2022/01/01 19:32:48;;;;;;;30.50;12.73;;;;;5.90;97121.00;;;;8336358;28;20232;-79
2022/01/01 19:36:54;;;;;;;24.03;9.30;;;;;6.00;97112.00;;;;8340250;28;20226;-77
2022/01/01 19:41:09;;;;;;;24.70;8.67;;;;;5.90;97115.00;;;;8330342;28;20267;-78
2022/01/01 19:45:18;;;;;;;20.37;9.93;;;;;5.80;97104.00;;;;8337809;28;20319;-77
2022/01/01 19:49:23;;;;;;;63.17;12.37;;;;;5.70;97090.00;;;;8337984;28;20690;-78
2022/01/01 19:53:29;;;;;;;137.20;14.93;;;;;5.70;97106.00;;;;8338382;28;20726;-78
2022/01/01 19:57:34;;;;;;;33.33;11.50;;;;;5.60;97099.00;;;;8332582;28;20296;-78
2022/01/01 20:01:37;;;;;;;289.40;19.03;;;;;5.50;97101.00;;;;8335569;28;20249;-78
2022/01/01 20:05:41;;;;;;;175.37;15.07;;;;;5.40;97107.00;;;;8338064;28;20733;-79
2022/01/01 20:09:46;;;;;;;63.77;11.33;;;;;5.30;97097.00;;;;8337968;28;20312;-78
2022/01/01 20:13:49;;;;;;;303.67;20.20;;;;;5.20;97101.00;;;;8334756;28;21204;-74
2022/01/01 20:17:55;;;;;;;137.87;16.13;;;;;5.00;97095.00;;;;8338009;28;20682;-75
2022/01/01 20:21:59;;;;;;;33.93;12.47;;;;;5.00;97092.00;;;;8331636;28;20312;-77